Time;durP1;ratioP1;P1;durP2;ratioP2;P2;SDS_P1;SDS_P2;PMS_P1;PMS_P2;Temp;Humidity;BMP_temperature;BMP_pressure;BME280_temperature;BME280_humidity;BME280_pressure;Samples;Min_cycle;Max_cycle;Signal;HPM_P1;HPM_P2
2021/07/14 00:01:14;;;;;;;1.48;1.38;;;;;;;17.52;87.33;95158.28;5058560;28;20225;-87
2021/07/14 00:03:41;;;;;;;1.15;1.10;;;;;;;17.41;88.41;95153.91;5059700;28;20205;-86
2021/07/14 00:06:09;;;;;;;2.42;1.20;;;;;;;17.38;89.68;95134.34;5058654;28;20210;-86
2021/07/14 00:08:52;;;;;;;1.80;1.17;;;;;;;17.41;88.58;95120.09;5058655;28;20201;-86
2021/07/14 00:11:19;;;;;;;1.30;1.20;;;;;;;17.36;88.58;95123.38;5058750;28;20228;-86
2021/07/14 00:13:59;;;;;;;1.77;1.13;;;;;;;17.36;87.89;95119.97;5058570;28;20202;-86
2021/07/14 00:22:11;;;;;;;1.35;1.20;;;;;;;17.53;87.27;95113.03;5057771;28;20227;-85
2021/07/14 00:24:38;;;;;;;1.33;1.20;;;;;;;17.52;88.49;95108.84;5058300;28;20208;-86
2021/07/14 00:27:06;;;;;;;1.73;1.63;;;;;;;17.54;88.33;95110.19;5058456;28;20202;-84
2021/07/14 00:29:36;;;;;;;3.95;1.15;;;;;;;17.56;88.23;95108.16;5059524;28;20221;-85
2021/07/14 00:32:02;;;;;;;1.75;1.00;;;;;;;17.54;87.18;95118.00;5058156;28;20225;-86
2021/07/14 00:34:29;;;;;;;2.22;1.33;;;;;;;17.54;87.28;95117.22;5058858;28;20205;-86
2021/07/14 00:36:57;;;;;;;1.27;1.15;;;;;;;17.54;87.41;95112.78;5058674;28;20205;-87
2021/07/14 00:39:23;;;;;;;2.92;1.33;;;;;;;17.57;87.48;95117.53;5058689;28;20209;-86
2021/07/14 00:41:50;;;;;;;1.90;1.40;;;;;;;17.62;87.23;95127.28;5058005;28;20229;-86
2021/07/14 00:44:16;;;;;;;1.60;1.48;;;;;;;17.57;87.42;95146.19;5057825;28;20206;-86
2021/07/14 00:46:47;;;;;;;1.85;1.30;;;;;;;17.56;86.87;95147.19;5057915;28;20240;-87
2021/07/14 00:49:14;;;;;;;1.48;1.20;;;;;;;17.56;86.79;95156.81;5059214;28;20208;-87
2021/07/14 00:51:41;;;;;;;1.50;1.30;;;;;;;17.52;86.35;95158.28;5058404;28;20217;-86
2021/07/14 00:54:09;;;;;;;1.90;1.20;;;;;;;17.56;86.13;95160.22;5058520;28;20205;-85
2021/07/14 00:56:36;;;;;;;1.45;1.30;;;;;;;17.57;85.37;95169.59;5058474;28;20205;-86
2021/07/14 00:59:02;;;;;;;2.35;1.52;;;;;;;17.52;85.79;95166.88;5058179;28;20198;-86
2021/07/14 01:01:31;;;;;;;1.58;1.48;;;;;;;17.50;85.35;95165.56;5057447;28;20713;-85
2021/07/14 01:04:06;;;;;;;2.75;1.30;;;;;;;17.53;85.44;95170.28;5058598;28;20259;-85
2021/07/14 01:06:42;;;;;;;3.33;1.55;;;;;;;17.56;85.54;95162.03;5058438;28;20209;-85
2021/07/14 01:09:11;;;;;;;1.65;1.35;;;;;;;17.61;85.46;95162.94;5058139;28;20213;-86
2021/07/14 01:11:39;;;;;;;1.40;1.30;;;;;;;17.67;85.85;95170.88;5057436;28;20221;-85
2021/07/14 01:14:09;;;;;;;1.52;1.42;;;;;;;17.59;86.31;95159.75;5057995;28;20709;-85
2021/07/14 01:16:40;;;;;;;2.13;1.45;;;;;;;17.54;88.33;95161.47;5057317;28;20753;-85
2021/07/14 01:19:45;;;;;;;1.52;1.38;;;;;;;17.54;87.41;95172.66;5058790;28;20553;-85
2021/07/14 01:22:19;;;;;;;1.58;1.30;;;;;;;17.51;87.88;95188.72;5060796;28;20279;-85
2021/07/14 01:24:55;;;;;;;1.60;1.50;;;;;;;17.50;88.00;95189.00;5062630;28;20193;-86
2021/07/14 01:27:25;;;;;;;1.45;1.30;;;;;;;17.46;88.40;95200.88;5062730;28;20205;-85
2021/07/14 01:29:53;;;;;;;2.08;1.38;;;;;;;17.50;88.04;95195.00;5062896;28;20213;-85
2021/07/14 01:32:24;;;;;;;3.13;1.40;;;;;;;17.56;88.00;95201.88;5061759;28;20595;-84
2021/07/14 01:34:55;;;;;;;2.70;1.60;;;;;;;17.57;88.17;95182.63;5062201;28;20208;-87
2021/07/14 01:37:25;;;;;;;2.97;1.33;;;;;;;17.64;88.49;95166.91;5062015;28;20205;-83
2021/07/14 01:39:53;;;;;;;1.50;1.35;;;;;;;17.68;88.36;95159.44;5061617;28;20216;-86
2021/07/14 01:42:22;;;;;;;2.17;1.42;;;;;;;17.69;88.18;95146.19;5061108;28;20230;-86
2021/07/14 01:44:53;;;;;;;2.40;1.50;;;;;;;17.64;88.91;95135.69;5061556;28;20204;-86
2021/07/14 01:47:22;;;;;;;3.42;1.30;;;;;;;17.49;91.04;95130.16;5061063;28;20201;-84
2021/07/14 01:49:50;;;;;;;1.50;1.40;;;;;;;17.42;92.39;95116.47;5060880;28;20209;-84
2021/07/14 01:52:19;;;;;;;1.40;1.30;;;;;;;17.51;91.32;95108.03;5061138;28;20217;-86
2021/07/14 01:54:49;;;;;;;2.45;1.55;;;;;;;17.51;91.26;95107.28;5061548;28;20721;-86
2021/07/14 01:57:16;;;;;;;3.20;1.52;;;;;;;17.56;90.46;95097.75;5061632;28;20665;-87
2021/07/14 01:59:44;;;;;;;1.98;1.67;;;;;;;17.57;90.19;95103.72;5060770;28;20210;-86
2021/07/14 02:02:15;;;;;;;2.05;1.85;;;;;;;17.51;90.04;95108.03;5059662;28;20229;-84
2021/07/14 02:04:42;;;;;;;1.73;1.63;;;;;;;17.52;89.80;95109.63;5059978;28;20297;-86
2021/07/14 02:07:12;;;;;;;2.53;1.70;;;;;;;17.56;89.37;95120.38;5060567;28;20546;-84
2021/07/14 02:09:41;;;;;;;4.82;1.70;;;;;;;17.56;89.31;95117.78;5059830;28;20202;-86
2021/07/14 02:12:10;;;;;;;1.80;1.70;;;;;;;17.53;89.52;95105.22;5059860;28;20720;-86
2021/07/14 02:14:40;;;;;;;2.83;1.83;;;;;;;17.52;89.98;95095.81;5059677;28;20236;-86
2021/07/14 02:17:13;;;;;;;1.90;1.48;;;;;;;17.47;90.44;95087.94;5059989;28;20197;-86
2021/07/14 02:19:45;;;;;;;2.03;1.80;;;;;;;17.50;91.07;95096.09;5060209;28;20201;-86
2021/07/14 02:22:12;;;;;;;2.60;1.70;;;;;;;17.57;91.37;95088.13;5058246;28;20232;-87
2021/07/14 02:24:38;;;;;;;2.30;1.98;;;;;;;17.57;91.21;95082.91;5058711;28;20209;-86
2021/07/14 02:27:06;;;;;;;3.53;1.90;;;;;;;17.57;90.54;95088.91;5058907;28;20272;-86
2021/07/14 02:29:35;;;;;;;2.00;1.55;;;;;;;17.61;89.52;95104.84;5059075;28;20561;-85
2021/07/14 02:32:01;;;;;;;2.47;1.70;;;;;;;17.60;89.63;95096.25;5058007;28;20221;-86
2021/07/14 02:34:29;;;;;;;2.33;1.60;;;;;;;17.61;89.70;95112.66;5058896;28;20580;-86
2021/07/14 02:36:57;;;;;;;1.58;1.48;;;;;;;17.56;89.92;95122.97;5059922;28;20205;-86
2021/07/14 02:39:25;;;;;;;1.83;1.73;;;;;;;17.47;90.54;95132.97;5060312;28;20205;-86
2021/07/14 02:41:56;;;;;;;2.35;1.60;;;;;;;17.38;91.55;95117.94;5059385;28;20229;-86
2021/07/14 02:44:26;;;;;;;2.28;1.65;;;;;;;17.40;91.89;95106.28;5059966;28;20223;-86
2021/07/14 02:46:56;;;;;;;1.50;1.40;;;;;;;17.50;91.19;95109.09;5059792;28;20213;-86
2021/07/14 02:49:27;;;;;;;1.50;1.40;;;;;;;17.54;91.01;95114.59;5059547;28;20186;-86
2021/07/14 02:51:56;;;;;;;1.42;1.27;;;;;;;17.56;90.33;95128.19;5059233;28;20213;-87
2021/07/14 02:54:25;;;;;;;1.75;1.23;;;;;;;17.58;90.38;95120.94;5059255;28;20205;-87
2021/07/14 02:56:58;;;;;;;1.85;1.50;;;;;;;17.61;89.99;95121.28;5059883;28;20205;-86
2021/07/14 02:59:28;;;;;;;1.65;1.50;;;;;;;17.64;90.06;95125.25;5059602;28;20229;-86
2021/07/14 03:01:56;;;;;;;1.50;1.40;;;;;;;17.60;90.11;95135.31;5058782;28;20221;-86
2021/07/14 03:04:28;;;;;;;1.80;1.70;;;;;;;17.56;90.34;95134.19;5058893;28;20212;-86
2021/07/14 03:06:57;;;;;;;1.80;1.55;;;;;;;17.54;90.50;95120.59;5059467;28;20205;-86
2021/07/14 03:09:32;;;;;;;1.67;1.50;;;;;;;17.51;91.01;95118.47;5057725;28;20212;-83
2021/07/14 03:12:00;;;;;;;3.90;1.48;;;;;;;17.50;91.39;95118.72;5058888;28;20221;-85
2021/07/14 03:14:28;;;;;;;1.35;1.25;;;;;;;17.51;90.64;95113.25;5058952;28;20228;-84
2021/07/14 03:16:55;;;;;;;2.60;1.70;;;;;;;17.49;91.05;95117.94;5057666;28;20202;-86
2021/07/14 03:19:22;;;;;;;1.42;1.25;;;;;;;17.53;90.96;95123.44;5058035;28;20213;-85
2021/07/14 03:21:49;;;;;;;1.58;1.38;;;;;;;17.53;90.27;95132.03;5057289;28;20692;-85
2021/07/14 03:24:18;;;;;;;1.70;1.45;;;;;;;17.39;90.95;95138.53;5059020;28;20206;-86
2021/07/14 03:26:45;;;;;;;2.45;1.45;;;;;;;17.44;91.07;95125.63;5058734;28;20213;-86
2021/07/14 03:29:12;;;;;;;3.15;1.50;;;;;;;17.49;91.04;95127.53;5057492;28;20204;-86
2021/07/14 03:31:38;;;;;;;1.50;1.40;;;;;;;17.46;91.64;95126.19;5057386;28;20213;-86
2021/07/14 03:34:05;;;;;;;2.53;1.48;;;;;;;17.41;92.52;95133.09;5057600;28;20233;-86
2021/07/14 03:36:32;;;;;;;1.98;1.35;;;;;;;17.38;92.69;95138.75;5057441;28;20205;-86
2021/07/14 03:38:59;;;;;;;1.63;1.25;;;;;;;17.45;92.54;95139.44;5058001;28;20208;-85
2021/07/14 03:41:28;;;;;;;1.77;1.30;;;;;;;17.50;92.18;95137.72;5057863;28;20218;-85
2021/07/14 03:43:56;;;;;;;2.97;1.45;;;;;;;17.52;91.60;95140.06;5057605;28;20633;-83
2021/07/14 03:46:24;;;;;;;1.85;1.27;;;;;;;17.52;91.26;95151.28;5058123;28;20283;-85
2021/07/14 03:48:52;;;;;;;2.95;1.52;;;;;;;17.55;90.99;95161.22;5057911;28;20596;-86
2021/07/14 03:51:22;;;;;;;1.70;1.55;;;;;;;17.55;90.76;95165.66;5058351;28;20213;-86
2021/07/14 03:53:50;;;;;;;1.60;1.50;;;;;;;17.55;91.04;95171.66;5058629;28;20204;-86
2021/07/14 03:56:18;;;;;;;1.67;1.30;;;;;;;17.55;90.25;95169.03;5058657;28;20213;-86
2021/07/14 03:58:46;;;;;;;2.20;1.58;;;;;;;17.51;91.12;95169.75;5058470;28;20204;-86
2021/07/14 04:01:13;;;;;;;2.22;1.40;;;;;;;17.53;90.55;95170.28;5057933;28;20271;-86
2021/07/14 04:03:41;;;;;;;1.98;1.55;;;;;;;17.52;90.17;95169.50;5057424;28;20225;-86
2021/07/14 04:06:08;;;;;;;2.03;1.27;;;;;;;17.51;89.82;95180.94;5057747;28;20193;-86
2021/07/14 04:08:38;;;;;;;3.95;1.38;;;;;;;17.50;90.20;95178.59;5057622;28;20279;-87
2021/07/14 04:11:06;;;;;;;4.70;1.50;;;;;;;17.49;90.34;95177.00;5058320;28;20225;-85
2021/07/14 04:13:32;;;;;;;1.90;1.40;;;;;;;17.45;89.57;95187.06;5057492;28;20213;-86
2021/07/14 04:16:00;;;;;;;1.40;1.30;;;;;;;17.44;88.98;95182.88;5058045;28;20208;-86
2021/07/14 04:18:27;;;;;;;1.55;1.40;;;;;;;17.36;87.80;95185.03;5057723;28;20208;-86
2021/07/14 04:20:53;;;;;;;2.35;1.40;;;;;;;17.38;87.87;95183.78;5057426;28;20222;-86
2021/07/14 04:23:20;;;;;;;2.30;1.33;;;;;;;17.44;88.01;95172.47;5058888;28;20218;-86
2021/07/14 04:25:46;;;;;;;3.70;1.48;;;;;;;17.42;88.34;95166.69;5058595;28;20194;-86
2021/07/14 04:28:13;;;;;;;1.73;1.23;;;;;;;17.44;88.12;95166.47;5058777;28;20616;-86
2021/07/14 04:30:43;;;;;;;2.88;1.50;;;;;;;17.44;88.55;95176.88;5058550;28;20681;-87
2021/07/14 04:33:12;;;;;;;3.00;1.40;;;;;;;17.40;87.79;95160.13;5058974;28;20217;-86
2021/07/14 04:35:39;;;;;;;1.98;1.20;;;;;;;17.42;87.33;95150.28;5058649;28;20202;-85
2021/07/14 04:38:06;;;;;;;2.80;1.50;;;;;;;17.40;88.15;95157.53;5059472;28;20201;-86
2021/07/14 04:40:32;;;;;;;1.48;1.35;;;;;;;17.28;89.89;95141.94;5059027;28;20202;-86
2021/07/14 04:42:58;;;;;;;2.10;1.30;;;;;;;17.29;89.57;95134.94;5059124;28;20228;-86
2021/07/14 04:45:25;;;;;;;1.88;1.48;;;;;;;17.26;88.34;95138.78;5058954;28;20215;-86
2021/07/14 04:47:52;;;;;;;1.88;1.40;;;;;;;17.29;88.83;95135.72;5058984;28;20201;-86
2021/07/14 04:50:20;;;;;;;2.33;1.08;;;;;;;17.34;86.70;95138.41;5058759;28;20304;-86
2021/07/14 04:52:46;;;;;;;1.38;1.20;;;;;;;17.34;87.38;95128.00;5058485;28;20594;-86
2021/07/14 04:55:13;;;;;;;3.58;1.30;;;;;;;17.43;84.52;95121.44;5058623;28;20205;-86
2021/07/14 04:57:39;;;;;;;1.10;1.10;;;;;;;17.49;84.28;95117.94;5057602;28;20201;-87
2021/07/14 05:00:07;;;;;;;2.75;1.30;;;;;;;17.46;83.59;95114.97;5057588;28;20228;-86
2021/07/14 05:02:34;;;;;;;2.40;1.27;;;;;;;17.40;82.77;95113.28;5057415;28;20688;-86
2021/07/14 05:05:00;;;;;;;3.13;1.30;;;;;;;17.30;81.35;95115.69;5058973;28;20618;-86
2021/07/14 05:07:29;;;;;;;2.88;2.00;;;;;;;17.26;82.11;95105.75;5058521;28;20208;-86
2021/07/14 05:09:56;;;;;;;1.95;1.67;;;;;;;17.16;83.63;95105.53;5058621;28;20205;-86
2021/07/14 05:12:23;;;;;;;1.60;1.50;;;;;;;17.10;83.69;95101.25;5058384;28;20213;-86
2021/07/14 05:14:49;;;;;;;1.48;1.38;;;;;;;17.20;83.09;95101.44;5058333;28;20197;-86
2021/07/14 05:17:16;;;;;;;2.08;1.20;;;;;;;17.20;83.48;95100.66;5058884;28;20212;-86
2021/07/14 05:19:45;;;;;;;1.73;1.20;;;;;;;17.19;83.76;95094.66;5057842;28;20205;-84
2021/07/14 05:22:13;;;;;;;3.67;1.23;;;;;;;17.22;83.55;95096.03;5057285;28;20229;-86
2021/07/14 05:24:41;;;;;;;2.58;1.30;;;;;;;17.15;83.80;95092.75;5057388;28;20205;-86
2021/07/14 05:27:08;;;;;;;2.58;1.45;;;;;;;17.18;84.14;95095.69;5056946;28;20198;-86
2021/07/14 05:29:35;;;;;;;1.75;1.50;;;;;;;17.33;82.64;95094.41;5056288;28;20208;-86
2021/07/14 05:32:03;;;;;;;3.05;1.48;;;;;;;17.45;81.60;95095.97;5056504;28;20598;-86
2021/07/14 05:34:29;;;;;;;1.83;1.50;;;;;;;17.36;81.42;95105.16;5057089;28;20204;-86
2021/07/14 05:36:56;;;;;;;1.35;1.25;;;;;;;17.39;81.35;95103.91;5056996;28;20216;-86
2021/07/14 05:39:23;;;;;;;4.53;1.23;;;;;;;17.44;81.03;95106.59;5056296;28;20704;-86
2021/07/14 05:41:51;;;;;;;3.55;1.30;;;;;;;17.37;80.82;95111.94;5056190;28;20229;-85
2021/07/14 05:44:17;;;;;;;3.83;1.27;;;;;;;17.31;81.89;95120.69;5056129;28;20259;-86
2021/07/14 05:46:44;;;;;;;1.52;1.15;;;;;;;17.42;79.84;95134.69;5056337;28;20204;-85
2021/07/14 05:49:11;;;;;;;3.95;1.58;;;;;;;17.47;80.11;95137.38;5056355;28;20209;-86
2021/07/14 05:51:38;;;;;;;2.38;1.33;;;;;;;17.36;79.35;95138.97;5055559;28;20236;-86
2021/07/14 05:54:05;;;;;;;1.98;1.20;;;;;;;17.41;79.26;95139.09;5054964;28;20465;-86
2021/07/14 05:56:32;;;;;;;1.48;1.38;;;;;;;17.41;79.96;95146.09;5056396;28;20208;-86
2021/07/14 05:58:59;;;;;;;1.40;1.30;;;;;;;17.39;79.10;95148.94;5054931;28;20201;-86
2021/07/14 06:01:26;;;;;;;4.70;1.50;;;;;;;17.42;80.02;95152.91;5055991;28;20228;-86
2021/07/14 06:03:52;;;;;;;3.05;1.40;;;;;;;17.41;79.71;95156.50;5054884;28;20222;-86
2021/07/14 06:06:19;;;;;;;1.55;1.30;;;;;;;17.47;79.46;95156.41;5055147;28;20205;-86
2021/07/14 06:08:46;;;;;;;1.38;1.27;;;;;;;17.47;77.21;95153.00;5056669;28;20201;-85
2021/07/14 06:11:12;;;;;;;1.83;1.30;;;;;;;17.41;78.39;95154.69;5058809;28;20294;-86
2021/07/14 06:13:39;;;;;;;1.85;1.70;;;;;;;17.37;77.41;95158.00;5058326;28;20198;-86
2021/07/14 06:16:07;;;;;;;4.53;1.63;;;;;;;17.26;77.61;95160.41;5058275;28;20289;-86
2021/07/14 06:18:34;;;;;;;2.13;1.48;;;;;;;17.30;78.06;95159.94;5058305;28;20217;-86
2021/07/14 06:21:01;;;;;;;1.42;1.33;;;;;;;17.35;78.52;95157.41;5057439;28;20213;-86
2021/07/14 06:23:27;;;;;;;1.50;1.30;;;;;;;17.31;79.00;95159.72;5058334;28;20236;-86
2021/07/14 06:25:55;;;;;;;2.55;1.50;;;;;;;17.19;78.38;95164.13;5058316;28;20201;-85
2021/07/14 06:28:21;;;;;;;2.55;1.83;;;;;;;17.22;78.74;95164.47;5058072;28;20206;-86
2021/07/14 06:30:49;;;;;;;4.05;1.65;;;;;;;17.28;79.10;95157.56;5058870;28;20222;-87
2021/07/14 06:33:17;;;;;;;3.55;1.80;;;;;;;17.30;79.12;95144.31;5059397;28;20208;-85
2021/07/14 06:35:43;;;;;;;2.45;1.67;;;;;;;17.34;79.55;95151.44;5059392;28;20272;-85
2021/07/14 06:38:11;;;;;;;2.00;1.73;;;;;;;17.41;80.46;95146.91;5056947;28;20206;-83
2021/07/14 06:40:38;;;;;;;2.08;1.70;;;;;;;17.41;80.04;95140.91;5058371;28;20198;-85
2021/07/14 06:43:06;;;;;;;1.63;1.52;;;;;;;17.42;80.61;95152.91;5058561;28;20228;-84
2021/07/14 06:45:32;;;;;;;3.38;2.00;;;;;;;17.45;79.73;95161.03;5058423;28;20201;-84
2021/07/14 06:47:59;;;;;;;5.78;1.65;;;;;;;17.46;79.89;95157.41;5057912;28;20292;-86
2021/07/14 06:50:27;;;;;;;5.03;1.80;;;;;;;17.59;79.68;95159.75;5058597;28;20205;-85
2021/07/14 06:52:54;;;;;;;1.60;1.50;;;;;;;17.60;79.21;95173.56;5058425;28;20201;-84
2021/07/14 06:55:20;;;;;;;2.47;1.90;;;;;;;17.52;78.69;95182.50;5057597;28;20201;-84
2021/07/14 06:57:47;;;;;;;2.42;1.88;;;;;;;17.54;78.97;95177.88;5057440;28;20677;-84
2021/07/14 07:00:15;;;;;;;2.40;1.73;;;;;;;17.52;78.23;95185.13;5056981;28;20209;-86
2021/07/14 07:02:43;;;;;;;2.42;1.70;;;;;;;17.47;77.97;95186.84;5057433;28;20224;-86
2021/07/14 07:05:10;;;;;;;2.30;1.80;;;;;;;17.42;77.61;95184.91;5058062;28;20551;-86
2021/07/14 07:07:38;;;;;;;3.28;1.77;;;;;;;17.41;77.25;95191.13;5058751;28;20208;-86
2021/07/14 07:10:06;;;;;;;1.83;1.70;;;;;;;17.44;77.75;95190.69;5058007;28;20197;-83
2021/07/14 07:12:33;;;;;;;3.40;2.03;;;;;;;17.55;78.26;95183.88;5057134;28;20225;-85
2021/07/14 07:14:59;;;;;;;2.05;1.50;;;;;;;17.66;78.65;95175.28;5058708;28;20684;-86
2021/07/14 07:17:26;;;;;;;1.60;1.50;;;;;;;17.66;78.66;95175.28;5057323;28;20205;-84
2021/07/14 07:19:52;;;;;;;2.15;1.73;;;;;;;17.78;78.55;95180.47;5058529;28;20197;-84
2021/07/14 07:22:19;;;;;;;3.45;1.58;;;;;;;17.84;79.17;95176.94;5057052;28;20240;-83
2021/07/14 07:25:00;;;;;;;1.73;1.63;;;;;;;17.80;76.87;95187.03;5059667;28;20252;-85
2021/07/14 07:27:32;;;;;;;3.03;1.80;;;;;;;17.75;76.25;95189.53;5058323;28;20201;-85
2021/07/14 07:30:01;;;;;;;1.77;1.67;;;;;;;17.90;76.37;95191.63;5060045;28;20625;-85
2021/07/14 07:32:28;;;;;;;2.83;1.98;;;;;;;17.92;76.05;95190.38;5059040;28;20228;-84
2021/07/14 07:34:55;;;;;;;1.75;1.65;;;;;;;17.89;75.10;95188.25;5058473;28;20567;-85
2021/07/14 07:37:27;;;;;;;1.65;1.55;;;;;;;17.89;75.59;95188.25;5058337;28;20225;-82
2021/07/14 07:40:00;;;;;;;1.60;1.50;;;;;;;17.93;76.40;95188.56;5058589;28;20587;-85
2021/07/14 07:42:29;;;;;;;1.80;1.67;;;;;;;17.89;75.61;95188.25;5058214;28;20229;-85
2021/07/14 07:45:03;;;;;;;1.88;1.75;;;;;;;17.95;75.35;95189.91;5058952;28;20586;-85
2021/07/14 07:47:35;;;;;;;2.40;1.70;;;;;;;18.02;75.48;95191.59;5057365;28;20198;-84
2021/07/14 07:50:05;;;;;;;5.20;1.90;;;;;;;18.09;76.13;95187.06;5057642;28;20208;-84
2021/07/14 07:52:39;;;;;;;2.25;1.90;;;;;;;18.00;73.35;95189.22;5056667;28;20249;-85
2021/07/14 07:55:17;;;;;;;1.65;1.55;;;;;;;18.03;74.27;95191.38;5057442;28;20219;-84
2021/07/14 07:57:47;;;;;;;2.90;1.80;;;;;;;18.13;74.89;95188.94;5057544;28;20193;-84
2021/07/14 08:00:24;;;;;;;1.90;1.67;;;;;;;18.15;73.80;95193.91;5057969;28;20233;-84
2021/07/14 08:02:52;;;;;;;6.03;1.90;;;;;;;18.18;73.21;95196.06;5056182;28;20712;-84
2021/07/14 08:05:21;;;;;;;2.38;1.58;;;;;;;18.21;73.07;95195.59;5058160;28;20283;-86
2021/07/14 08:07:55;;;;;;;3.13;1.45;;;;;;;18.24;73.47;95195.13;5057440;28;20207;-84
2021/07/14 08:10:26;;;;;;;2.28;1.90;;;;;;;18.37;73.05;95194.06;5057090;28;20208;-85
2021/07/14 08:12:52;;;;;;;1.58;1.48;;;;;;;18.47;73.54;95194.25;5056966;28;20724;-87
2021/07/14 08:15:27;;;;;;;2.63;1.60;;;;;;;18.60;72.40;95188.75;5057875;28;20657;-85
2021/07/14 08:17:59;;;;;;;2.47;1.50;;;;;;;18.74;72.99;95194.44;5058287;28;20201;-85
2021/07/14 08:20:25;;;;;;;1.60;1.50;;;;;;;18.70;72.74;95185.50;5057436;28;20217;-84
2021/07/14 08:22:59;;;;;;;1.65;1.40;;;;;;;18.81;71.88;95189.88;5056722;28;20321;-85
2021/07/14 08:25:38;;;;;;;1.52;1.42;;;;;;;18.91;71.64;95187.41;5056765;28;20229;-84
2021/07/14 08:28:05;;;;;;;1.60;1.50;;;;;;;18.93;71.38;95193.97;5056762;28;20723;-85
2021/07/14 08:30:33;;;;;;;1.85;1.65;;;;;;;18.94;72.61;95195.56;5056339;28;20263;-85
2021/07/14 08:33:20;;;;;;;2.75;1.90;;;;;;;18.92;71.83;95199.41;5056644;28;20278;-85
2021/07/14 08:35:46;;;;;;;1.92;1.70;;;;;;;18.90;70.61;95199.66;5056487;28;20244;-84
2021/07/14 08:38:18;;;;;;;1.77;1.67;;;;;;;18.87;71.89;95207.94;5056577;28;20406;-85
2021/07/14 08:40:52;;;;;;;2.33;1.92;;;;;;;18.93;71.93;95209.63;5056607;28;20227;-86
2021/07/14 08:43:27;;;;;;;2.20;2.00;;;;;;;18.94;73.43;95203.38;5057099;28;20226;-86
2021/07/14 08:46:00;;;;;;;2.00;1.75;;;;;;;18.93;74.43;95217.44;5057863;28;20208;-86
2021/07/14 08:48:27;;;;;;;1.70;1.60;;;;;;;19.02;73.02;95217.84;5057904;28;20284;-86
2021/07/14 08:50:58;;;;;;;1.80;1.70;;;;;;;19.12;72.67;95214.59;5056865;28;20307;-86
2021/07/14 08:53:27;;;;;;;1.83;1.73;;;;;;;19.18;72.00;95209.22;5057073;28;20197;-86
2021/07/14 08:56:00;;;;;;;2.42;1.90;;;;;;;19.22;72.26;95214.75;5056685;28;20213;-86
2021/07/14 08:58:32;;;;;;;2.08;1.92;;;;;;;19.23;71.94;95211.91;5057003;28;20622;-86
2021/07/14 09:01:20;;;;;;;1.80;1.70;;;;;;;19.22;72.27;95219.97;5056874;28;20263;-86
2021/07/14 09:03:46;;;;;;;3.70;2.10;;;;;;;19.26;71.06;95221.06;5056702;28;20229;-86
2021/07/14 09:06:13;;;;;;;1.60;1.50;;;;;;;19.31;72.45;95218.53;5055838;28;20223;-85
2021/07/14 09:08:40;;;;;;;1.75;1.65;;;;;;;19.36;73.30;95223.84;5056402;28;20243;-85
2021/07/14 09:11:13;;;;;;;2.45;1.60;;;;;;;19.46;69.91;95223.16;5054811;28;20222;-85
2021/07/14 09:13:49;;;;;;;2.08;1.90;;;;;;;19.55;71.46;95224.38;5056525;28;20212;-83
2021/07/14 09:16:37;;;;;;;1.73;1.63;;;;;;;19.54;69.89;95230.63;5056672;28;20204;-85
2021/07/14 09:19:18;;;;;;;3.20;1.63;;;;;;;19.64;70.52;95231.53;5057197;28;20193;-84
2021/07/14 09:21:45;;;;;;;1.80;1.70;;;;;;;19.54;69.50;95225.41;5055486;28;20696;-84
2021/07/14 09:24:43;;;;;;;3.00;1.55;;;;;;;19.51;68.88;95226.69;5055733;28;20229;-84
2021/07/14 09:27:39;;;;;;;1.73;1.63;;;;;;;19.57;69.26;95228.34;5033439;28;20231;-86
2021/07/14 09:30:22;;;;;;;4.28;1.70;;;;;;;19.53;68.93;95235.06;5056114;28;20205;-86
2021/07/14 09:32:54;;;;;;;1.70;1.60;;;;;;;19.50;69.86;95237.34;5056890;28;20244;-86
2021/07/14 09:35:30;;;;;;;1.63;1.52;;;;;;;19.38;69.04;95234.03;5057071;28;20189;-86
2021/07/14 09:38:17;;;;;;;2.35;1.80;;;;;;;19.32;69.37;95243.59;5057254;28;20201;-86
2021/07/14 09:40:51;;;;;;;1.77;1.60;;;;;;;19.31;70.57;95237.59;5057585;28;20897;-86
2021/07/14 09:43:29;;;;;;;1.98;1.42;;;;;;;19.19;72.47;95243.94;5059390;28;20626;-86
2021/07/14 09:45:57;;;;;;;1.55;1.45;;;;;;;19.22;71.97;95238.25;5061189;28;20234;-85
2021/07/14 09:48:31;;;;;;;1.70;1.60;;;;;;;19.25;70.89;95241.16;5060583;28;20269;-85
2021/07/14 09:51:11;;;;;;;1.50;1.40;;;;;;;19.19;72.26;95241.34;5060809;28;20217;-88
2021/07/14 09:53:40;;;;;;;2.53;1.58;;;;;;;19.22;72.25;95238.25;5060054;28;20202;-88
2021/07/14 09:56:12;;;;;;;2.67;1.40;;;;;;;19.21;73.77;95242.69;5060693;28;20205;-85
2021/07/14 09:58:41;;;;;;;1.70;1.60;;;;;;;19.20;72.57;95243.72;5060973;28;20727;-86
2021/07/14 10:01:13;;;;;;;1.70;1.60;;;;;;;19.19;71.68;95233.50;5061358;28;20222;-86
2021/07/14 10:03:49;;;;;;;2.47;1.52;;;;;;;19.12;71.11;95248.53;5060397;28;20205;-85
2021/07/14 10:06:29;;;;;;;1.70;1.60;;;;;;;19.09;72.37;95241.94;5060510;28;20509;-84
2021/07/14 10:09:03;;;;;;;1.92;1.60;;;;;;;19.13;72.95;95244.88;5060475;28;20193;-85
2021/07/14 10:11:36;;;;;;;1.60;1.50;;;;;;;19.19;72.34;95238.72;5059978;28;20307;-88
2021/07/14 10:14:08;;;;;;;1.52;1.40;;;;;;;19.19;72.79;95238.72;5060232;28;20572;-85
2021/07/14 10:16:38;;;;;;;2.17;1.40;;;;;;;19.21;72.68;95242.69;5059422;28;20220;-86
2021/07/14 10:19:16;;;;;;;1.50;1.40;;;;;;;19.12;73.95;95233.66;5058907;28;20201;-86
2021/07/14 10:21:50;;;;;;;2.50;1.75;;;;;;;19.08;74.66;95224.72;5059638;28;20271;-85
2021/07/14 10:24:24;;;;;;;1.60;1.50;;;;;;;19.09;74.13;95226.28;5062549;28;20217;-87
2021/07/14 10:26:56;;;;;;;1.80;1.70;;;;;;;19.04;73.24;95233.28;5059167;28;20201;-87
2021/07/14 10:29:32;;;;;;;1.98;1.80;;;;;;;19.04;72.29;95247.13;5059625;28;20202;-87
2021/07/14 10:32:02;;;;;;;1.88;1.77;;;;;;;18.96;72.58;95245.69;5058387;28;20620;-87
2021/07/14 10:34:35;;;;;;;2.55;1.70;;;;;;;19.00;73.43;95243.38;5059759;28;20263;-87
2021/07/14 10:37:05;;;;;;;1.60;1.50;;;;;;;18.98;73.69;95242.84;5059527;28;20275;-87
2021/07/14 10:39:37;;;;;;;1.48;1.38;;;;;;;19.01;72.92;95238.97;5060005;28;20262;-88
2021/07/14 10:42:18;;;;;;;2.20;1.45;;;;;;;18.97;73.16;95244.66;5058447;28;20234;-87
2021/07/14 10:44:46;;;;;;;1.63;1.50;;;;;;;18.98;72.55;95255.88;5060920;28;20304;-86
2021/07/14 10:47:14;;;;;;;1.75;1.30;;;;;;;18.98;72.18;95248.06;5060028;28;20201;-87
2021/07/14 10:49:41;;;;;;;1.55;1.45;;;;;;;18.98;72.88;95242.84;5059880;28;20198;-88
2021/07/14 10:52:09;;;;;;;1.50;1.40;;;;;;;19.04;72.68;95244.50;5059634;28;20252;-87
2021/07/14 10:54:36;;;;;;;1.50;1.40;;;;;;;19.11;72.19;95249.53;5058840;28;20193;-88
2021/07/14 10:57:05;;;;;;;3.30;1.65;;;;;;;19.11;72.05;95257.38;5058895;28;20202;-87
2021/07/14 10:59:32;;;;;;;1.58;1.48;;;;;;;19.17;72.18;95265.06;5059022;28;20223;-87
2021/07/14 11:02:02;;;;;;;1.88;1.58;;;;;;;19.24;72.34;95257.84;5059052;28;20226;-86
2021/07/14 11:04:54;;;;;;;1.55;1.42;;;;;;;19.32;71.85;95247.00;5058667;28;20229;-85
2021/07/14 11:07:39;;;;;;;1.73;1.63;;;;;;;19.35;71.84;95248.34;5059428;28;20233;-86
2021/07/14 11:10:33;;;;;;;2.92;1.60;;;;;;;19.24;70.93;95252.63;5058749;28;20201;-85
2021/07/14 11:13:01;;;;;;;2.13;1.73;;;;;;;19.20;70.40;95253.34;5058611;28;20248;-87
2021/07/14 11:15:33;;;;;;;1.80;1.70;;;;;;;19.23;70.56;95248.47;5058462;28;20194;-85
2021/07/14 11:18:36;;;;;;;1.85;1.52;;;;;;;19.26;70.16;95249.78;5058288;28;20209;-87
2021/07/14 11:21:03;;;;;;;1.63;1.52;;;;;;;19.23;69.98;95250.28;5056553;28;20221;-87
2021/07/14 11:23:31;;;;;;;3.55;1.80;;;;;;;19.21;70.46;95249.72;5058472;28;20205;-87
2021/07/14 11:25:58;;;;;;;2.40;1.60;;;;;;;19.19;71.27;95257.00;5056081;28;20218;-87
2021/07/14 11:28:28;;;;;;;1.80;1.70;;;;;;;19.26;71.28;95263.63;5057806;28;20198;-86
2021/07/14 11:30:56;;;;;;;2.47;1.83;;;;;;;19.32;70.87;95260.06;5057470;28;20312;-86
2021/07/14 11:33:29;;;;;;;3.15;1.60;;;;;;;19.40;70.61;95261.50;5058089;28;20201;-85
2021/07/14 11:38:48;;;;;;;2.88;1.80;;;;;;;19.43;70.85;95247.97;5058173;28;20247;-87
2021/07/14 11:41:21;;;;;;;2.10;1.90;;;;;;;19.55;70.27;95245.28;5058152;28;20327;-87
2021/07/14 11:43:49;;;;;;;1.60;1.50;;;;;;;19.62;69.96;95241.47;5058726;28;20202;-87
2021/07/14 11:46:18;;;;;;;1.70;1.60;;;;;;;19.63;69.87;95234.41;5058403;28;20217;-85
2021/07/14 11:48:50;;;;;;;6.68;2.00;;;;;;;19.70;70.27;95229.00;5058883;28;20288;-86
2021/07/14 11:51:25;;;;;;;2.05;1.75;;;;;;;19.75;68.88;95240.31;5057443;28;20692;-87
2021/07/14 11:53:53;;;;;;;1.63;1.52;;;;;;;19.82;69.42;95253.97;5057758;28;20204;-87
2021/07/14 11:56:24;;;;;;;1.90;1.70;;;;;;;19.75;68.26;95260.44;5056403;28;20717;-87